Time;durP1;ratioP1;P1;durP2;ratioP2;P2;SDS_P1;SDS_P2;PMS_P1;PMS_P2;Temp;Humidity;BMP_temperature;BMP_pressure;BME280_temperature;BME280_humidity;BME280_pressure;Samples;Min_cycle;Max_cycle;Signal;HPM_P1;HPM_P2
2022/01/31 00:00:09;;;;;;;0.70;0.70;;;-2.70;99.90;;;;;;5035478;28;20225;-69
2022/01/31 00:02:35;;;;;;;0.80;0.80;;;-2.70;99.90;;;;;;5033085;28;20299;-69
2022/01/31 00:05:02;;;;;;;0.80;0.80;;;-2.80;99.90;;;;;;5049683;28;20233;-69
2022/01/31 00:07:28;;;;;;;0.63;0.63;;;-2.90;99.90;;;;;;5049889;28;20201;-69
2022/01/31 00:09:53;;;;;;;0.85;0.85;;;-2.80;99.90;;;;;;5041926;28;20336;-69
2022/01/31 00:12:20;;;;;;;0.80;0.80;;;-2.80;99.90;;;;;;5045569;28;20678;-70
2022/01/31 00:14:49;;;;;;;0.90;0.90;;;-2.90;99.90;;;;;;5025322;28;20207;-69
2022/01/31 00:17:16;;;;;;;0.80;0.80;;;-2.80;99.90;;;;;;5041449;28;20673;-68
2022/01/31 00:19:43;;;;;;;0.70;0.70;;;-2.90;99.90;;;;;;5038314;28;20202;-68
2022/01/31 00:22:11;;;;;;;0.90;0.90;;;-2.90;99.90;;;;;;5045680;28;20230;-68
2022/01/31 00:24:38;;;;;;;1.15;1.10;;;-3.00;99.90;;;;;;5050593;28;20276;-68
2022/01/31 00:27:06;;;;;;;0.75;0.75;;;-2.90;99.90;;;;;;5048980;28;20197;-70
2022/01/31 00:29:32;;;;;;;0.70;0.70;;;-2.90;99.90;;;;;;5049517;28;20206;-68
2022/01/31 00:31:58;;;;;;;0.80;0.80;;;-3.00;99.90;;;;;;5049535;28;20212;-68
2022/01/31 00:34:24;;;;;;;0.77;0.77;;;-3.00;99.90;;;;;;5050341;28;20259;-69
2022/01/31 00:36:50;;;;;;;0.70;0.70;;;-3.00;99.90;;;;;;5043492;28;20209;-68
2022/01/31 00:39:16;;;;;;;0.80;0.80;;;-3.00;99.90;;;;;;5050530;28;20189;-68
2022/01/31 00:41:42;;;;;;;0.90;0.90;;;-3.00;99.90;;;;;;5050140;28;20213;-69
2022/01/31 00:44:22;;;;;;;0.90;0.90;;;-3.00;99.90;;;;;;5047273;28;20563;-69
2022/01/31 00:46:59;;;;;;;0.80;0.80;;;-3.10;99.90;;;;;;5034560;28;20549;-69
2022/01/31 00:51:59;;;;;;;0.80;0.80;;;-3.00;99.90;;;;;;5037226;28;20198;-68
2022/01/31 00:54:25;;;;;;;0.80;0.80;;;-3.00;99.90;;;;;;5049423;28;20225;-69
2022/01/31 00:56:52;;;;;;;0.70;0.70;;;-2.90;99.90;;;;;;5050046;28;20252;-68
2022/01/31 00:59:18;;;;;;;0.80;0.80;;;-2.90;99.90;;;;;;5050132;28;20218;-70
2022/01/31 01:01:44;;;;;;;0.90;0.90;;;-2.90;99.90;;;;;;5049407;28;20213;-70
2022/01/31 01:04:10;;;;;;;0.80;0.80;;;-2.90;99.90;;;;;;5050115;28;20292;-69
2022/01/31 01:06:36;;;;;;;0.80;0.80;;;-3.00;99.90;;;;;;5049795;28;20232;-70
2022/01/31 01:09:03;;;;;;;0.80;0.80;;;-3.00;99.90;;;;;;5048829;28;20210;-69
2022/01/31 01:11:28;;;;;;;0.80;0.80;;;-3.00;99.90;;;;;;5048226;28;20684;-69
2022/01/31 01:13:54;;;;;;;0.73;0.73;;;-3.00;99.90;;;;;;5049853;28;20209;-69
2022/01/31 01:16:20;;;;;;;0.70;0.70;;;-3.00;99.90;;;;;;5047041;28;20213;-70
2022/01/31 01:18:45;;;;;;;0.80;0.80;;;-3.00;99.90;;;;;;5049593;28;20210;-68
2022/01/31 01:21:11;;;;;;;0.80;0.80;;;-2.90;99.90;;;;;;5048477;28;20252;-69
2022/01/31 01:23:37;;;;;;;0.75;0.75;;;-2.90;99.90;;;;;;5026361;28;20581;-69
2022/01/31 01:26:03;;;;;;;0.85;0.85;;;-2.90;99.90;;;;;;5036209;28;20201;-69
2022/01/31 01:28:29;;;;;;;0.85;0.85;;;-2.90;99.90;;;;;;5040500;28;20212;-69
2022/01/31 01:30:56;;;;;;;0.70;0.70;;;-2.90;99.90;;;;;;5040875;28;20214;-69
2022/01/31 01:33:23;;;;;;;0.73;0.73;;;-3.00;99.90;;;;;;5037135;28;20206;-70
2022/01/31 01:35:51;;;;;;;0.80;0.80;;;-3.00;99.90;;;;;;5040250;28;20205;-70
2022/01/31 01:38:18;;;;;;;0.70;0.70;;;-3.00;99.90;;;;;;5042039;28;20226;-69
2022/01/31 01:40:46;;;;;;;0.80;0.80;;;-3.00;99.90;;;;;;5034470;28;20665;-69
2022/01/31 01:43:14;;;;;;;0.80;0.80;;;-3.00;99.90;;;;;;5033091;28;20205;-69
2022/01/31 01:45:42;;;;;;;0.80;0.80;;;-3.00;99.90;;;;;;5039650;28;20787;-68
2022/01/31 01:48:09;;;;;;;0.82;0.82;;;-3.10;99.90;;;;;;5034612;28;20202;-68
2022/01/31 01:50:36;;;;;;;0.80;0.80;;;-3.10;99.90;;;;;;5028955;28;20525;-69
2022/01/31 01:53:03;;;;;;;0.80;0.80;;;-3.10;99.90;;;;;;5043775;28;20708;-69
2022/01/31 01:55:29;;;;;;;0.80;0.80;;;-3.20;99.90;;;;;;5032326;28;20217;-68
2022/01/31 01:57:56;;;;;;;0.90;0.90;;;-3.20;99.90;;;;;;5031598;28;20214;-68
2022/01/31 02:00:26;;;;;;;0.80;0.80;;;-3.30;99.90;;;;;;5035689;28;20210;-69
2022/01/31 02:02:53;;;;;;;0.80;0.80;;;-3.40;99.90;;;;;;5037111;28;20661;-71
2022/01/31 02:05:20;;;;;;;0.70;0.70;;;-3.40;99.90;;;;;;5034447;28;20193;-72
2022/01/31 02:07:45;;;;;;;0.80;0.80;;;-3.40;99.90;;;;;;5045638;28;20202;-71
2022/01/31 02:10:13;;;;;;;0.80;0.80;;;-3.50;99.90;;;;;;5034245;28;20343;-71
2022/01/31 02:12:44;;;;;;;0.80;0.80;;;-3.40;99.90;;;;;;5045051;28;20579;-71
2022/01/31 02:15:12;;;;;;;0.90;0.90;;;-3.50;99.90;;;;;;5031759;28;20583;-71
2022/01/31 02:17:38;;;;;;;0.80;0.80;;;-3.50;99.90;;;;;;5045306;28;20616;-71
2022/01/31 02:20:06;;;;;;;0.80;0.80;;;-3.60;99.90;;;;;;5033030;28;20252;-71
2022/01/31 02:22:32;;;;;;;0.90;0.90;;;-3.50;99.90;;;;;;5047137;28;20546;-71
2022/01/31 02:24:58;;;;;;;0.90;0.90;;;-3.50;99.90;;;;;;5048396;28;20202;-72
2022/01/31 02:27:29;;;;;;;0.80;0.80;;;-3.60;99.90;;;;;;5049247;28;20716;-71
2022/01/31 02:29:55;;;;;;;0.80;0.80;;;-3.60;99.90;;;;;;5032576;28;20678;-71
2022/01/31 02:32:22;;;;;;;0.80;0.80;;;-3.60;99.90;;;;;;5049473;28;20212;-72
2022/01/31 02:34:49;;;;;;;0.80;0.80;;;-3.70;99.90;;;;;;5048797;28;20296;-72
2022/01/31 02:37:16;;;;;;;0.90;0.90;;;-3.80;99.90;;;;;;5048090;28;20205;-71
2022/01/31 02:39:41;;;;;;;0.90;0.90;;;-3.80;99.90;;;;;;5036915;28;20206;-71
2022/01/31 02:42:08;;;;;;;0.80;0.80;;;-3.80;99.90;;;;;;5030637;28;20213;-71
2022/01/31 02:44:33;;;;;;;0.80;0.80;;;-3.70;99.90;;;;;;5045414;28;20664;-71
2022/01/31 02:46:59;;;;;;;0.90;0.90;;;-3.70;99.90;;;;;;5045749;28;20221;-70
2022/01/31 02:49:33;;;;;;;0.80;0.80;;;-3.70;99.90;;;;;;5046832;28;20204;-70
2022/01/31 02:52:01;;;;;;;0.80;0.80;;;-3.70;99.90;;;;;;5045581;28;20220;-70
2022/01/31 02:54:29;;;;;;;0.82;0.82;;;-3.70;99.90;;;;;;5046541;28;20250;-70
2022/01/31 02:56:55;;;;;;;1.17;1.17;;;-3.70;99.90;;;;;;5048094;28;20228;-70
2022/01/31 02:59:21;;;;;;;0.80;0.80;;;-3.70;99.90;;;;;;5047917;28;20214;-71
2022/01/31 03:01:46;;;;;;;0.80;0.80;;;-3.70;99.90;;;;;;5042558;28;20266;-71
2022/01/31 03:04:13;;;;;;;0.80;0.80;;;-3.70;99.90;;;;;;5046879;28;20209;-71
2022/01/31 03:06:41;;;;;;;0.88;0.88;;;-3.60;99.90;;;;;;5044329;28;20197;-70
2022/01/31 03:09:09;;;;;;;0.90;0.90;;;-3.60;99.90;;;;;;5045220;28;20621;-71
2022/01/31 03:11:34;;;;;;;0.70;0.70;;;-3.60;99.90;;;;;;5035071;28;20209;-70
2022/01/31 03:14:00;;;;;;;0.80;0.80;;;-3.60;99.90;;;;;;5046764;28;20292;-71
2022/01/31 03:16:26;;;;;;;0.80;0.80;;;-3.60;99.90;;;;;;5047408;28;20277;-70
2022/01/31 03:18:51;;;;;;;0.80;0.80;;;-3.50;99.90;;;;;;5051896;28;20280;-71
2022/01/31 03:21:18;;;;;;;0.80;0.80;;;-3.60;99.90;;;;;;5051746;28;20213;-72
2022/01/31 03:23:46;;;;;;;0.80;0.80;;;-3.60;99.90;;;;;;5051705;28;20189;-72
2022/01/31 03:26:12;;;;;;;0.80;0.80;;;-3.60;99.90;;;;;;5036402;28;20183;-71
2022/01/31 03:28:37;;;;;;;0.82;0.82;;;-3.60;99.90;;;;;;5053140;28;20204;-71
2022/01/31 03:31:03;;;;;;;0.90;0.90;;;-3.60;99.90;;;;;;5052879;28;20205;-71
2022/01/31 03:33:30;;;;;;;0.80;0.80;;;-3.70;99.90;;;;;;5035646;28;20242;-70
2022/01/31 03:35:56;;;;;;;1.20;1.20;;;-3.70;99.90;;;;;;5046912;28;20672;-70
2022/01/31 03:38:21;;;;;;;0.82;0.82;;;-3.70;99.90;;;;;;5048627;28;20208;-70
2022/01/31 03:40:50;;;;;;;0.80;0.80;;;-3.70;99.90;;;;;;5051490;28;20210;-70
2022/01/31 03:43:15;;;;;;;0.80;0.80;;;-3.70;99.90;;;;;;5047947;28;20233;-70
2022/01/31 03:45:41;;;;;;;0.88;0.88;;;-3.80;99.90;;;;;;5049856;28;20263;-71
2022/01/31 03:48:08;;;;;;;0.75;0.75;;;-3.70;99.90;;;;;;5040819;28;20718;-71
2022/01/31 03:50:33;;;;;;;0.73;0.73;;;-3.80;99.90;;;;;;5044546;28;20221;-71
2022/01/31 03:52:59;;;;;;;0.90;0.90;;;-3.70;99.90;;;;;;5051336;28;20233;-70
2022/01/31 03:55:25;;;;;;;0.80;0.80;;;-3.80;99.90;;;;;;5051027;28;20275;-70
2022/01/31 03:57:50;;;;;;;0.80;0.80;;;-3.70;99.90;;;;;;5048829;28;20210;-70
2022/01/31 04:00:17;;;;;;;0.80;0.80;;;-3.80;99.90;;;;;;5048613;28;20259;-70
2022/01/31 04:02:43;;;;;;;0.88;0.88;;;-3.80;99.90;;;;;;5032598;28;20194;-70
2022/01/31 04:05:09;;;;;;;0.82;0.82;;;-3.80;99.90;;;;;;5037677;28;20205;-70
2022/01/31 04:07:36;;;;;;;0.80;0.80;;;-3.90;99.90;;;;;;5050932;28;20190;-70
2022/01/31 04:10:04;;;;;;;0.85;0.85;;;-3.90;99.90;;;;;;5045421;28;20226;-71
2022/01/31 04:12:29;;;;;;;0.90;0.90;;;-3.90;99.90;;;;;;5049430;28;20202;-70
2022/01/31 04:14:55;;;;;;;0.80;0.80;;;-4.00;99.90;;;;;;5050906;28;20206;-71
2022/01/31 04:17:21;;;;;;;0.90;0.90;;;-4.00;99.90;;;;;;5050611;28;20225;-71
2022/01/31 04:19:48;;;;;;;0.80;0.80;;;-4.10;99.90;;;;;;5050755;28;20209;-73
2022/01/31 04:22:17;;;;;;;0.80;0.80;;;-4.10;99.90;;;;;;5035077;28;20206;-70
2022/01/31 04:24:43;;;;;;;0.90;0.90;;;-4.10;99.90;;;;;;5051956;28;20339;-71
2022/01/31 04:27:16;;;;;;;0.80;0.80;;;-4.20;99.90;;;;;;5047073;28;20740;-70
2022/01/31 04:29:43;;;;;;;1.38;1.15;;;-4.20;99.90;;;;;;5049053;28;20197;-72
2022/01/31 04:32:09;;;;;;;1.13;1.08;;;-4.30;99.90;;;;;;5047153;28;20379;-72
2022/01/31 04:34:35;;;;;;;0.70;0.70;;;-4.30;99.90;;;;;;5047958;28;20284;-72
2022/01/31 04:37:02;;;;;;;0.90;0.90;;;-4.30;99.90;;;;;;5048087;28;20206;-71
2022/01/31 04:39:29;;;;;;;3.08;2.25;;;-4.30;99.90;;;;;;5049123;28;20206;-69
2022/01/31 04:41:55;;;;;;;0.70;0.70;;;-4.40;99.90;;;;;;5050368;28;20688;-69
2022/01/31 04:44:22;;;;;;;0.88;0.88;;;-4.50;99.90;;;;;;5039189;28;20217;-69
2022/01/31 04:46:51;;;;;;;0.80;0.80;;;-4.50;99.90;;;;;;5043937;28;20201;-69
2022/01/31 04:49:18;;;;;;;0.80;0.80;;;-4.60;99.90;;;;;;5050224;28;20661;-69
2022/01/31 04:51:44;;;;;;;0.80;0.80;;;-4.70;99.90;;;;;;5046677;28;20315;-70
2022/01/31 04:54:10;;;;;;;0.80;0.80;;;-4.80;99.90;;;;;;5049229;28;20209;-70
2022/01/31 04:56:38;;;;;;;0.90;0.90;;;-4.90;99.90;;;;;;5048635;28;20221;-69
2022/01/31 04:59:04;;;;;;;0.60;0.60;;;-4.90;99.90;;;;;;5049989;28;20198;-69
2022/01/31 05:01:30;;;;;;;0.80;0.80;;;-4.90;99.90;;;;;;5048582;28;20213;-69
2022/01/31 05:03:56;;;;;;;0.80;0.80;;;-4.90;99.90;;;;;;5047562;28;20216;-71
2022/01/31 05:06:28;;;;;;;5.07;2.10;;;-5.00;99.90;;;;;;5047518;28;20285;-69
2022/01/31 05:08:54;;;;;;;0.90;0.90;;;-5.00;99.90;;;;;;5047868;28;20205;-69
2022/01/31 05:11:20;;;;;;;0.90;0.90;;;-5.00;99.90;;;;;;5031668;28;20210;-70
2022/01/31 05:13:46;;;;;;;0.90;0.90;;;-5.10;99.90;;;;;;5050369;28;20629;-69
2022/01/31 05:16:12;;;;;;;0.80;0.80;;;-5.10;99.90;;;;;;5032302;28;20202;-68
2022/01/31 05:18:38;;;;;;;0.90;0.90;;;-5.20;99.90;;;;;;5033502;28;20716;-70
2022/01/31 05:21:05;;;;;;;0.90;0.90;;;-5.30;99.90;;;;;;5033380;28;20214;-69
2022/01/31 05:23:32;;;;;;;0.90;0.90;;;-5.30;99.90;;;;;;5031004;28;20256;-70
2022/01/31 05:25:58;;;;;;;0.90;0.90;;;-5.30;99.90;;;;;;5049781;28;20245;-69
2022/01/31 05:28:23;;;;;;;0.90;0.90;;;-5.40;99.90;;;;;;5033001;28;20689;-70
2022/01/31 05:30:49;;;;;;;0.90;0.90;;;-5.40;99.90;;;;;;5049093;28;20292;-72
2022/01/31 05:33:15;;;;;;;0.90;0.90;;;-5.40;99.90;;;;;;5035918;28;20210;-69
2022/01/31 05:35:40;;;;;;;0.90;0.90;;;-5.50;99.90;;;;;;5033065;28;20209;-71
2022/01/31 05:38:06;;;;;;;0.90;0.90;;;-5.60;99.90;;;;;;5048328;28;20231;-70
2022/01/31 05:40:32;;;;;;;0.90;0.90;;;-5.70;99.90;;;;;;5032856;28;20206;-70
2022/01/31 05:42:58;;;;;;;0.90;0.90;;;-5.80;99.90;;;;;;5044576;28;20288;-70
2022/01/31 05:45:23;;;;;;;0.90;0.90;;;-5.80;99.90;;;;;;5019793;28;20206;-72
2022/01/31 05:47:49;;;;;;;0.90;0.90;;;-5.80;99.90;;;;;;5041400;28;20618;-70
2022/01/31 05:50:15;;;;;;;15.90;2.50;;;-5.90;99.90;;;;;;5036296;28;20228;-69
2022/01/31 05:52:40;;;;;;;0.93;0.93;;;-5.90;99.90;;;;;;5033520;28;20206;-70
2022/01/31 05:55:06;;;;;;;1.00;1.00;;;-6.00;99.90;;;;;;5032513;28;20222;-69
2022/01/31 05:57:33;;;;;;;0.90;0.90;;;-6.00;99.90;;;;;;5041592;28;20228;-68
2022/01/31 05:59:59;;;;;;;1.00;1.00;;;-6.00;99.90;;;;;;5026285;28;20229;-68
2022/01/31 06:02:25;;;;;;;0.93;0.93;;;-6.00;99.90;;;;;;5035003;28;20210;-68
2022/01/31 06:04:50;;;;;;;0.83;0.83;;;-5.90;99.90;;;;;;5030870;28;20629;-68
2022/01/31 06:07:16;;;;;;;0.90;0.90;;;-5.90;99.90;;;;;;5032524;28;20623;-67
2022/01/31 06:09:42;;;;;;;0.90;0.90;;;-5.80;99.90;;;;;;5033120;28;20198;-68
2022/01/31 06:12:10;;;;;;;0.90;0.90;;;-5.70;99.90;;;;;;5038192;28;20206;-68
2022/01/31 06:14:36;;;;;;;0.80;0.80;;;-5.60;99.90;;;;;;5036363;28;20205;-67
2022/01/31 06:17:02;;;;;;;1.00;1.00;;;-5.60;99.90;;;;;;5036192;28;20198;-69
2022/01/31 06:19:29;;;;;;;0.90;0.90;;;-5.70;99.90;;;;;;5048275;28;20208;-67
2022/01/31 06:21:55;;;;;;;0.90;0.90;;;-5.70;99.90;;;;;;5045442;28;20216;-67
2022/01/31 06:24:21;;;;;;;0.90;0.90;;;-5.70;99.90;;;;;;5048241;28;20255;-68
2022/01/31 06:26:47;;;;;;;0.80;0.80;;;-5.60;99.90;;;;;;5047390;28;20566;-68
2022/01/31 06:29:12;;;;;;;0.97;0.97;;;-5.60;99.90;;;;;;5047277;28;20202;-68
2022/01/31 06:31:38;;;;;;;0.90;0.90;;;-5.60;99.90;;;;;;5036677;28;20213;-69
2022/01/31 06:34:04;;;;;;;0.80;0.80;;;-5.70;99.90;;;;;;5014880;28;20353;-68
2022/01/31 06:36:30;;;;;;;0.90;0.90;;;-5.70;99.90;;;;;;5049686;28;20212;-68
2022/01/31 06:38:56;;;;;;;0.90;0.90;;;-5.80;99.90;;;;;;5032110;28;20210;-68
2022/01/31 06:41:23;;;;;;;1.10;1.10;;;-5.80;99.90;;;;;;5046888;28;20209;-69
2022/01/31 06:43:50;;;;;;;0.90;0.90;;;-5.90;99.90;;;;;;5030782;28;20209;-68
2022/01/31 06:46:16;;;;;;;0.90;0.90;;;-5.90;99.90;;;;;;5048022;28;20684;-68
2022/01/31 06:48:42;;;;;;;0.90;0.90;;;-6.00;99.90;;;;;;5032129;28;20199;-68
2022/01/31 06:51:08;;;;;;;0.80;0.80;;;-6.10;99.90;;;;;;5033547;28;20315;-68
2022/01/31 06:53:34;;;;;;;0.90;0.90;;;-6.10;99.90;;;;;;5031732;28;20210;-68
2022/01/31 06:56:00;;;;;;;0.90;0.90;;;-6.20;99.90;;;;;;5045133;28;20244;-68
2022/01/31 06:58:26;;;;;;;0.90;0.90;;;-6.30;99.90;;;;;;5017265;28;20207;-68
2022/01/31 07:00:57;;;;;;;0.90;0.90;;;-6.30;99.90;;;;;;5041711;28;20304;-68
2022/01/31 07:03:25;;;;;;;0.80;0.80;;;-6.40;99.90;;;;;;5035433;28;20225;-68
2022/01/31 07:05:51;;;;;;;0.80;0.80;;;-6.30;99.90;;;;;;5040368;28;20209;-69
2022/01/31 07:08:16;;;;;;;3.70;2.13;;;-6.40;99.90;;;;;;5043957;28;20588;-68
2022/01/31 07:10:50;;;;;;;0.87;0.87;;;-6.40;99.90;;;;;;5043120;28;20209;-68
2022/01/31 07:16:00;;;;;;;0.80;0.80;;;-6.30;99.90;;;;;;5046785;28;20726;-68
2022/01/31 07:18:26;;;;;;;0.90;0.90;;;-6.30;99.90;;;;;;5047581;28;20217;-68
2022/01/31 07:20:53;;;;;;;0.80;0.80;;;-6.30;99.90;;;;;;5046532;28;20213;-68
2022/01/31 07:23:37;;;;;;;1.00;1.00;;;-6.30;99.90;;;;;;5038479;28;20208;-69
2022/01/31 07:26:03;;;;;;;0.80;0.80;;;-6.30;99.90;;;;;;5040363;28;20197;-68
2022/01/31 07:28:28;;;;;;;0.90;0.90;;;-6.30;99.90;;;;;;5039501;28;20615;-68
2022/01/31 07:30:54;;;;;;;0.87;0.87;;;-6.30;99.90;;;;;;5039781;28;20213;-68
2022/01/31 07:33:20;;;;;;;1.00;1.00;;;-6.30;99.90;;;;;;5044508;28;20214;-68
2022/01/31 07:35:48;;;;;;;0.80;0.80;;;-6.30;99.90;;;;;;5046556;28;20258;-68
2022/01/31 07:38:14;;;;;;;0.90;0.90;;;-6.30;99.90;;;;;;5047588;28;20213;-68
2022/01/31 07:40:40;;;;;;;0.90;0.90;;;-6.30;99.90;;;;;;5047282;28;20205;-68
2022/01/31 07:43:06;;;;;;;0.90;0.90;;;-6.20;99.90;;;;;;5046571;28;20270;-68
2022/01/31 07:45:32;;;;;;;0.90;0.90;;;-6.10;99.90;;;;;;5046030;28;20202;-68
2022/01/31 07:47:58;;;;;;;0.70;0.70;;;-5.90;99.90;;;;;;5047344;28;20206;-68
2022/01/31 07:50:24;;;;;;;0.90;0.90;;;-5.70;99.90;;;;;;5047504;28;20705;-68
2022/01/31 07:52:49;;;;;;;0.90;0.90;;;-5.60;99.90;;;;;;5046655;28;20600;-68
2022/01/31 07:55:17;;;;;;;0.87;0.87;;;-5.50;99.90;;;;;;5030902;28;20725;-68
2022/01/31 07:57:46;;;;;;;0.80;0.80;;;-5.40;99.90;;;;;;5045484;28;20225;-70
2022/01/31 08:00:12;;;;;;;0.80;0.80;;;-5.30;99.90;;;;;;5049113;28;20205;-68
2022/01/31 08:02:42;;;;;;;0.87;0.87;;;-5.20;99.90;;;;;;5047358;28;20225;-67
2022/01/31 08:05:08;;;;;;;0.80;0.80;;;-5.20;99.90;;;;;;5050620;28;20198;-68
2022/01/31 08:07:35;;;;;;;0.80;0.80;;;-5.10;99.90;;;;;;5046970;28;20198;-67
2022/01/31 08:10:02;;;;;;;0.80;0.80;;;-5.10;99.90;;;;;;5038487;28;20772;-67
2022/01/31 08:12:28;;;;;;;0.90;0.90;;;-5.00;99.90;;;;;;5046971;28;20220;-67
2022/01/31 08:15:01;;;;;;;1.10;1.10;;;-4.90;99.90;;;;;;5048427;28;20680;-68
2022/01/31 08:17:26;;;;;;;0.80;0.80;;;-4.90;99.90;;;;;;5050672;28;20201;-69
2022/01/31 08:19:52;;;;;;;0.70;0.70;;;-4.90;99.90;;;;;;5049573;28;20259;-68
2022/01/31 08:22:17;;;;;;;0.70;0.70;;;-4.70;99.90;;;;;;5049642;28;20212;-68
2022/01/31 08:24:43;;;;;;;0.90;0.90;;;-4.70;99.90;;;;;;5048248;28;20197;-68
2022/01/31 08:27:09;;;;;;;0.70;0.70;;;-4.70;99.90;;;;;;5049577;28;20276;-68
2022/01/31 08:29:37;;;;;;;0.80;0.80;;;-4.60;99.90;;;;;;5050390;28;20255;-68
2022/01/31 08:32:08;;;;;;;0.80;0.80;;;-4.60;99.90;;;;;;5047145;28;20313;-68
2022/01/31 08:37:18;;;;;;;0.90;0.90;;;-4.50;99.90;;;;;;5050627;28;20279;-70
2022/01/31 08:39:44;;;;;;;0.80;0.80;;;-4.50;99.90;;;;;;5050273;28;20201;-69
2022/01/31 08:42:10;;;;;;;0.70;0.70;;;-4.50;99.90;;;;;;5050377;28;20250;-69
2022/01/31 08:44:35;;;;;;;0.80;0.80;;;-4.40;99.90;;;;;;5049198;28;20231;-68
2022/01/31 08:47:03;;;;;;;0.80;0.80;;;-4.50;99.90;;;;;;5047020;28;20213;-71
2022/01/31 08:49:30;;;;;;;0.80;0.80;;;-4.40;99.90;;;;;;5049021;28;20209;-68
2022/01/31 08:51:55;;;;;;;0.82;0.82;;;-4.40;99.90;;;;;;5048935;28;20297;-68
2022/01/31 08:54:21;;;;;;;0.90;0.90;;;-4.40;99.90;;;;;;5032634;28;20214;-69
2022/01/31 08:56:48;;;;;;;0.80;0.80;;;-4.40;99.90;;;;;;5049849;28;20214;-69
2022/01/31 08:59:18;;;;;;;0.80;0.80;;;-4.40;99.90;;;;;;5051127;28;20247;-69
2022/01/31 09:01:52;;;;;;;1.00;1.00;;;-4.30;99.90;;;;;;5050153;28;20265;-68
2022/01/31 09:04:32;;;;;;;0.80;0.80;;;-4.20;99.90;;;;;;5051602;28;20271;-68
2022/01/31 09:06:57;;;;;;;0.80;0.80;;;-4.10;99.90;;;;;;5050388;28;20591;-69
2022/01/31 09:09:24;;;;;;;0.80;0.80;;;-4.00;99.90;;;;;;5045519;28;20203;-68
2022/01/31 09:11:50;;;;;;;0.80;0.80;;;-3.80;99.90;;;;;;5048870;28;20214;-69
2022/01/31 09:14:16;;;;;;;0.80;0.80;;;-3.70;99.90;;;;;;5046055;28;20259;-69
2022/01/31 09:16:47;;;;;;;0.80;0.80;;;-3.70;99.90;;;;;;5046140;28;20739;-70
2022/01/31 09:19:12;;;;;;;0.82;0.82;;;-3.50;99.90;;;;;;5048543;28;20214;-69
2022/01/31 09:21:38;;;;;;;0.75;0.75;;;-3.40;99.90;;;;;;5048237;28;20232;-67
2022/01/31 09:24:04;;;;;;;0.82;0.82;;;-3.30;99.90;;;;;;5049685;28;20225;-69
2022/01/31 09:26:30;;;;;;;0.90;0.90;;;-3.20;99.90;;;;;;5049375;28;20209;-68
2022/01/31 09:28:56;;;;;;;0.75;0.75;;;-3.10;99.90;;;;;;5049539;28;20236;-68
2022/01/31 09:31:22;;;;;;;0.97;0.97;;;-3.00;99.90;;;;;;5049399;28;20206;-69
2022/01/31 09:33:49;;;;;;;0.80;0.80;;;-2.90;99.90;;;;;;5049413;28;20201;-68
2022/01/31 09:36:15;;;;;;;7.43;1.80;;;-2.80;99.90;;;;;;5048044;28;20209;-69
2022/01/31 09:38:42;;;;;;;0.90;0.90;;;-2.70;99.90;;;;;;5047706;28;20197;-71
2022/01/31 09:41:10;;;;;;;0.90;0.90;;;-2.60;99.90;;;;;;5046835;28;20209;-70
2022/01/31 09:46:29;;;;;;;0.82;0.82;;;-2.50;99.90;;;;;;5049452;28;20233;-70
2022/01/31 09:48:51;;;;;;;0.80;0.80;;;-2.40;99.90;;;;;;5047993;28;20607;-70
2022/01/31 09:51:23;;;;;;;0.80;0.80;;;-2.20;99.90;;;;;;5047252;28;20220;-70
2022/01/31 09:53:51;;;;;;;0.70;0.70;;;-2.20;99.90;;;;;;5048540;28;20193;-68
2022/01/31 09:56:21;;;;;;;0.70;0.70;;;-2.10;99.90;;;;;;5048886;28;20240;-69
2022/01/31 09:58:49;;;;;;;0.80;0.80;;;-2.00;99.90;;;;;;5043593;28;20554;-70
2022/01/31 10:01:16;;;;;;;0.80;0.80;;;-1.90;99.90;;;;;;5046582;28;20221;-70
2022/01/31 10:03:53;;;;;;;0.70;0.70;;;-1.80;99.90;;;;;;5046698;28;20210;-70
2022/01/31 10:06:34;;;;;;;0.80;0.80;;;-1.80;99.90;;;;;;5031036;28;20210;-70
2022/01/31 10:09:18;;;;;;;0.70;0.70;;;-1.80;99.90;;;;;;5030354;28;20260;-69
2022/01/31 10:11:53;;;;;;;0.75;0.75;;;-1.70;99.90;;;;;;5034672;28;20715;-70
2022/01/31 10:17:34;;;;;;;0.70;0.70;;;-1.60;99.90;;;;;;5049004;28;20234;-70
2022/01/31 10:20:09;;;;;;;0.75;0.75;;;-1.60;99.90;;;;;;5046089;28;20665;-70
2022/01/31 10:22:38;;;;;;;0.70;0.70;;;-1.40;99.90;;;;;;5045853;28;20694;-69
2022/01/31 10:25:08;;;;;;;0.77;0.77;;;-1.30;99.90;;;;;;5045917;28;20557;-70
2022/01/31 10:27:36;;;;;;;0.60;0.60;;;-1.30;99.90;;;;;;5047831;28;20197;-70
2022/01/31 10:30:07;;;;;;;0.70;0.70;;;-1.30;99.90;;;;;;5034845;28;20666;-70
2022/01/31 10:32:36;;;;;;;0.60;0.60;;;-1.30;99.90;;;;;;5026148;28;20205;-69
2022/01/31 10:35:06;;;;;;;0.80;0.80;;;-1.40;99.90;;;;;;5047226;28;20283;-70
2022/01/31 10:37:34;;;;;;;0.70;0.70;;;-1.50;99.90;;;;;;5048093;28;20586;-70
2022/01/31 10:56:42;;;;;;;0.70;0.70;;;-0.70;99.90;;;;;;5030496;28;20717;-70
2022/01/31 10:59:39;;;;;;;0.60;0.60;;;-0.70;99.90;;;;;;5047203;28;20232;-73
2022/01/31 11:02:18;;;;;;;0.70;0.70;;;-0.80;99.90;;;;;;5047607;28;20264;-70
2022/01/31 11:04:45;;;;;;;0.70;0.70;;;-0.80;99.90;;;;;;5049217;28;20201;-70
2022/01/31 11:07:14;;;;;;;0.60;0.60;;;-0.80;99.90;;;;;;5031875;28;20210;-69
2022/01/31 11:09:42;;;;;;;0.80;0.80;;;-0.80;99.90;;;;;;5041932;28;20210;-69
2022/01/31 11:12:09;;;;;;;6.30;2.20;;;-0.90;99.90;;;;;;5048613;28;20197;-71
2022/01/31 11:14:38;;;;;;;0.70;0.70;;;-0.90;99.90;;;;;;5046403;28;20216;-70
2022/01/31 11:17:10;;;;;;;0.70;0.70;;;-0.90;99.90;;;;;;5044707;28;20229;-70
2022/01/31 11:19:37;;;;;;;0.98;0.98;;;-0.90;99.90;;;;;;5031875;28;20205;-70
2022/01/31 11:22:07;;;;;;;0.70;0.70;;;-0.90;99.90;;;;;;5044053;28;20636;-71
2022/01/31 11:24:47;;;;;;;0.70;0.70;;;-0.90;99.90;;;;;;5032163;28;20206;-70
2022/01/31 11:27:21;;;;;;;0.68;0.68;;;-0.90;99.90;;;;;;5046253;28;20734;-70
2022/01/31 11:29:49;;;;;;;0.70;0.70;;;-0.70;99.90;;;;;;5079135;28;20227;-70
2022/01/31 11:32:15;;;;;;;0.65;0.65;;;-0.60;99.90;;;;;;5044296;28;20209;-70
2022/01/31 11:34:43;;;;;;;1.17;1.08;;;-0.60;99.90;;;;;;5044096;28;20240;-71
2022/01/31 11:37:12;;;;;;;0.70;0.70;;;-0.60;99.90;;;;;;5048506;28;20205;-70
2022/01/31 11:39:41;;;;;;;0.70;0.70;;;-0.60;99.90;;;;;;5048129;28;21545;-70
2022/01/31 11:42:09;;;;;;;0.70;0.70;;;-0.60;99.90;;;;;;5050484;28;20580;-70
2022/01/31 11:44:44;;;;;;;0.77;0.77;;;-0.50;99.90;;;;;;5051390;28;20198;-70
2022/01/31 11:47:11;;;;;;;0.60;0.60;;;-0.40;99.90;;;;;;5048781;28;20204;-70
2022/01/31 11:49:43;;;;;;;0.70;0.70;;;-0.30;99.90;;;;;;5051308;28;20668;-70
2022/01/31 11:52:09;;;;;;;0.60;0.60;;;-0.40;99.90;;;;;;5049406;28;20215;-70
2022/01/31 11:54:45;;;;;;;0.60;0.60;;;-0.50;99.90;;;;;;5048427;28;20237;-70
2022/01/31 11:57:13;;;;;;;0.50;0.50;;;-0.40;99.90;;;;;;5050214;28;20267;-70
2022/01/31 11:59:40;;;;;;;0.50;0.50;;;-0.50;99.90;;;;;;5051172;28;20201;-70
2022/01/31 12:02:06;;;;;;;0.70;0.70;;;-0.60;99.90;;;;;;5047343;28;20267;-70
2022/01/31 12:04:34;;;;;;;0.70;0.70;;;-0.70;99.90;;;;;;5051007;28;20197;-70
2022/01/31 12:07:33;;;;;;;0.70;0.70;;;-0.70;99.90;;;;;;5050029;28;20690;-69
2022/01/31 12:10:00;;;;;;;0.70;0.70;;;-0.70;99.90;;;;;;5040750;28;20626;-69
2022/01/31 12:12:49;;;;;;;0.70;0.70;;;-0.60;99.90;;;;;;5044093;28;20563;-70
2022/01/31 12:24:05;;;;;;;0.75;0.75;;;-0.50;99.90;;;;;;5019454;28;20565;-70
2022/01/31 12:26:43;;;;;;;0.60;0.60;;;-0.50;99.90;;;;;;5036109;28;20202;-70
2022/01/31 12:29:15;;;;;;;0.70;0.70;;;-0.60;99.90;;;;;;5048387;28;20197;-70
2022/01/31 12:32:09;;;;;;;0.80;0.80;;;-0.70;99.90;;;;;;5037355;28;20571;-70
2022/01/31 12:34:41;;;;;;;0.70;0.70;;;-0.70;99.90;;;;;;5041881;28;20259;-70
2022/01/31 12:37:20;;;;;;;0.60;0.60;;;-0.80;99.90;;;;;;5039897;28;20685;-70
2022/01/31 12:40:02;;;;;;;0.68;0.68;;;-0.80;99.90;;;;;;5032221;28;20213;-70
2022/01/31 12:43:07;;;;;;;0.60;0.60;;;-0.90;99.90;;;;;;5027510;28;20553;-70
2022/01/31 12:45:43;;;;;;;0.70;0.70;;;-0.90;99.90;;;;;;5047709;28;20296;-71
2022/01/31 12:48:08;;;;;;;0.80;0.80;;;-0.90;99.90;;;;;;5035413;28;20765;-71
2022/01/31 12:50:56;;;;;;;0.70;0.70;;;-0.90;99.90;;;;;;5032464;28;20289;-70
2022/01/31 12:53:27;;;;;;;0.60;0.60;;;-0.90;99.90;;;;;;5013687;28;20215;-71
2022/01/31 12:56:10;;;;;;;0.70;0.70;;;-0.90;99.90;;;;;;5048462;28;20225;-71
2022/01/31 12:58:42;;;;;;;0.70;0.70;;;-1.00;99.90;;;;;;5050054;28;20193;-71
2022/01/31 13:01:15;;;;;;;0.65;0.65;;;-1.00;99.90;;;;;;5033720;28;20209;-71
2022/01/31 13:03:46;;;;;;;0.50;0.50;;;-0.90;99.90;;;;;;5051450;28;20233;-70
2022/01/31 13:06:36;;;;;;;0.70;0.70;;;-1.00;99.90;;;;;;5050201;28;20284;-71
2022/01/31 13:09:07;;;;;;;0.70;0.70;;;-1.00;99.90;;;;;;5050729;28;20614;-71
2022/01/31 13:11:33;;;;;;;0.80;0.80;;;-1.10;99.90;;;;;;5016172;28;20202;-70
2022/01/31 13:14:04;;;;;;;0.70;0.70;;;-1.10;99.90;;;;;;5049723;28;20210;-70
2022/01/31 13:19:33;;;;;;;0.60;0.60;;;-1.20;99.90;;;;;;5016264;28;20203;-70
2022/01/31 13:22:01;;;;;;;0.65;0.65;;;-1.20;99.90;;;;;;5049510;28;20201;-70
2022/01/31 13:24:38;;;;;;;0.60;0.60;;;-1.20;99.90;;;;;;5047622;28;20198;-69
2022/01/31 13:27:06;;;;;;;0.77;0.77;;;-1.20;99.90;;;;;;5015798;28;20193;-70
2022/01/31 13:29:34;;;;;;;0.70;0.70;;;-1.20;99.90;;;;;;5014441;28;20203;-70
2022/01/31 13:32:16;;;;;;;0.68;0.68;;;-1.10;99.90;;;;;;5050802;28;20197;-70
2022/01/31 13:34:43;;;;;;;0.90;0.90;;;-1.20;99.90;;;;;;5015961;28;20218;-70